Time;durP1;ratioP1;P1;durP2;ratioP2;P2;SDS_P1;SDS_P2;PMS_P1;PMS_P2;Temp;Humidity;BMP_temperature;BMP_pressure;BME280_temperature;BME280_humidity;BME280_pressure;Samples;Min_cycle;Max_cycle;Signal;HPM_P1;HPM_P2
2023/12/06 00:01:17;;;;;;;;;;;;;;;0.48;100.00;100897.75;4967735;28;19924;-76
2023/12/06 00:03:43;;;;;;;;;;;;;;;0.48;100.00;100905.69;4987718;28;20024;-75
2023/12/06 00:06:08;;;;;;;;;;;;;;;0.53;100.00;100898.47;4990092;28;19925;-75
2023/12/06 00:08:34;;;;;;;;;;;;;;;0.54;100.00;100902.78;4993127;28;19921;-76
2023/12/06 00:10:59;;;;;;;;;;;;;;;0.51;100.00;100897.66;4987937;28;19925;-75
2023/12/06 00:13:24;;;;;;;;;;;;;;;0.58;100.00;100904.41;4984834;28;20292;-75
2023/12/06 00:15:50;;;;;;;;;;;;;;;0.59;100.00;100901.75;4976269;28;20384;-75
2023/12/06 00:18:15;;;;;;;;;;;;;;;0.54;100.00;100906.31;5010820;28;19922;-75
2023/12/06 00:20:40;;;;;;;;;;;;;;;0.61;100.00;100906.97;4995665;28;20000;-75
2023/12/06 00:23:05;;;;;;;;;;;;;;;0.64;100.00;100908.66;4997909;28;20027;-75
2023/12/06 00:25:31;;;;;;;;;;;;;;;0.58;100.00;100913.22;4985851;28;19922;-75
2023/12/06 00:27:56;;;;;;;;;;;;;;;0.59;100.00;100914.06;5010465;28;20323;-75
2023/12/06 00:30:22;;;;;;;;;;;;;;;0.61;100.00;100914.88;4998082;28;19922;-75
2023/12/06 00:32:47;;;;;;;;;;;;;;;0.60;100.00;100915.81;4993203;28;19947;-75
2023/12/06 00:35:12;;;;;;;;;;;;;;;0.66;100.00;100912.09;4995328;28;19964;-75
2023/12/06 00:37:37;;;;;;;;;;;;;;;0.67;100.00;100912.03;4997629;28;19967;-74
2023/12/06 00:40:03;;;;;;;;;;;;;;;0.66;100.00;100920.03;4990324;28;20400;-75
2023/12/06 00:42:28;;;;;;;;;;;;;;;0.66;100.00;100917.38;4998825;28;20984;-74
2023/12/06 00:44:53;;;;;;;;;;;;;;;0.62;100.00;100928.97;4993357;28;20024;-75
2023/12/06 00:47:19;;;;;;;;;;;;;;;0.66;100.00;100930.59;4979903;28;19925;-74
2023/12/06 00:49:44;;;;;;;;;;;;;;;0.71;100.00;100937.44;5004090;28;19931;-75
2023/12/06 00:52:09;;;;;;;;;;;;;;;0.70;100.00;100933.06;4998119;28;19921;-75
2023/12/06 00:54:34;;;;;;;;;;;;;;;0.71;100.00;100932.16;4989420;28;19928;-75
2023/12/06 00:57:00;;;;;;;;;;;;;;;0.72;100.00;100939.16;4993921;28;19960;-75
2023/12/06 00:59:25;;;;;;;;;;;;;;;0.73;100.00;100948.81;4989000;28;20360;-75
2023/12/06 01:01:50;;;;;;;;;;;;;;;0.76;100.00;100952.28;4989625;28;20424;-75
2023/12/06 01:04:15;;;;;;;;;;;;;;;0.80;100.00;100952.09;4994806;28;20592;-74
2023/12/06 01:06:40;;;;;;;;;;;;;;;0.72;100.00;100960.31;4975521;28;20263;-75
2023/12/06 01:09:06;;;;;;;;;;;;;;;0.74;100.00;100962.88;4976304;28;20860;-76
2023/12/06 01:11:32;;;;;;;;;;;;;;;0.72;100.00;100970.88;4974667;28;19925;-75
2023/12/06 01:13:57;;;;;;;;;;;;;;;0.70;100.00;100964.78;4989932;28;19964;-75
2023/12/06 01:16:22;;;;;;;;;;;;;;;0.76;100.00;100961.06;5014579;28;19931;-75
2023/12/06 01:18:47;;;;;;;;;;;;;;;0.77;100.00;100964.59;4976747;28;19929;-74
2023/12/06 01:21:12;;;;;;;;;;;;;;;0.77;100.00;100964.59;4991647;28;19925;-75
2023/12/06 01:23:38;;;;;;;;;;;;;;;0.78;100.00;100967.16;4990467;28;20392;-75
2023/12/06 01:26:03;;;;;;;;;;;;;;;0.77;100.00;100957.50;4988528;28;19964;-75
2023/12/06 01:28:28;;;;;;;;;;;;;;;0.81;100.00;100964.41;4992466;28;19927;-75
2023/12/06 01:30:53;;;;;;;;;;;;;;;0.84;100.00;100966.06;4969471;28;19968;-75
2023/12/06 01:33:18;;;;;;;;;;;;;;;0.81;100.00;100961.75;4974958;28;20008;-75
2023/12/06 01:35:44;;;;;;;;;;;;;;;0.81;100.00;100966.16;4993475;28;20538;-75
2023/12/06 01:38:10;;;;;;;;;;;;;;;0.85;100.00;100967.78;4992183;28;19964;-75
2023/12/06 01:40:39;;;;;;;;;;;;;;;0.79;100.00;100974.16;4990710;28;20406;-75
2023/12/06 01:43:05;;;;;;;;;;;;;;;0.83;100.00;100974.91;4990413;28;19928;-75
2023/12/06 01:45:30;;;;;;;;;;;;;;;0.84;100.00;100976.66;5004548;28;19925;-75
2023/12/06 01:47:55;;;;;;;;;;;;;;;0.85;100.00;100979.25;4972828;28;20043;-75
2023/12/06 01:50:20;;;;;;;;;;;;;;;0.85;100.00;100971.31;4998430;28;20451;-75
2023/12/06 01:52:46;;;;;;;;;;;;;;;0.83;100.00;100978.44;4992518;28;20020;-76
2023/12/06 01:55:11;;;;;;;;;;;;;;;0.84;100.00;100981.94;4977710;28;20352;-75
2023/12/06 01:57:36;;;;;;;;;;;;;;;0.89;100.00;100980.88;4989633;28;20011;-75
2023/12/06 02:00:03;;;;;;;;;;;;;;;0.92;100.00;100973.75;4993163;28;20375;-75
2023/12/06 02:02:28;;;;;;;;;;;;;;;0.93;100.00;100976.34;4991974;28;19922;-75
2023/12/06 02:04:53;;;;;;;;;;;;;;;0.93;100.00;100978.97;4996463;28;20284;-75
2023/12/06 02:07:18;;;;;;;;;;;;;;;0.90;100.00;100984.38;4990403;28;20380;-75
2023/12/06 02:09:44;;;;;;;;;;;;;;;0.90;100.00;100987.00;4972591;28;19925;-75
2023/12/06 02:12:09;;;;;;;;;;;;;;;0.94;100.00;100988.63;4990925;28;19964;-75
2023/12/06 02:14:35;;;;;;;;;;;;;;;0.93;100.00;100988.69;4991681;28;19921;-75
2023/12/06 02:17:03;;;;;;;;;;;;;;;0.94;100.00;100991.28;4995014;28;19991;-75
2023/12/06 02:19:29;;;;;;;;;;;;;;;0.94;100.00;100993.91;4994426;28;19922;-75
2023/12/06 02:21:54;;;;;;;;;;;;;;;0.96;100.00;100985.94;4975342;28;19928;-74
2023/12/06 02:24:19;;;;;;;;;;;;;;;0.95;100.00;100985.06;4992362;28;19926;-75
2023/12/06 02:26:45;;;;;;;;;;;;;;;0.95;100.00;100994.78;4990568;28;19951;-75
2023/12/06 02:29:10;;;;;;;;;;;;;;;0.96;100.00;100999.16;4995188;28;19933;-75
2023/12/06 02:31:35;;;;;;;;;;;;;;;0.99;100.00;100993.75;4997675;28;19922;-75
2023/12/06 02:34:01;;;;;;;;;;;;;;;1.02;100.00;100997.16;4994287;28;19947;-75
2023/12/06 02:36:27;;;;;;;;;;;;;;;1.01;100.00;101000.72;4971204;28;20411;-75
2023/12/06 02:38:52;;;;;;;;;;;;;;;0.99;100.00;100994.63;4996890;28;19921;-76
2023/12/06 02:41:17;;;;;;;;;;;;;;;1.01;100.00;101005.13;4977098;28;19954;-75
2023/12/06 02:43:43;;;;;;;;;;;;;;;1.00;100.00;100998.13;4977512;28;20403;-75
2023/12/06 02:46:08;;;;;;;;;;;;;;;1.00;100.00;100992.84;4997693;28;19958;-75
2023/12/06 02:48:34;;;;;;;;;;;;;;;0.98;100.00;100999.94;4988858;28;19929;-75
2023/12/06 02:50:59;;;;;;;;;;;;;;;1.00;100.00;101001.66;5004982;28;19967;-75
2023/12/06 02:53:24;;;;;;;;;;;;;;;0.98;100.00;101000.84;5009653;28;20008;-75
2023/12/06 02:55:49;;;;;;;;;;;;;;;0.99;100.00;101010.50;4977959;28;20021;-75
2023/12/06 02:58:14;;;;;;;;;;;;;;;0.99;100.00;101001.69;4987513;28;19929;-75
2023/12/06 03:00:40;;;;;;;;;;;;;;;1.02;100.00;101005.09;4993647;28;19918;-75
2023/12/06 03:03:05;;;;;;;;;;;;;;;0.96;100.00;100999.16;4986987;28;19926;-75
2023/12/06 03:05:30;;;;;;;;;;;;;;;0.95;100.00;101005.34;5004670;28;19944;-75
2023/12/06 03:07:56;;;;;;;;;;;;;;;0.97;100.00;101004.41;4973957;28;19926;-75
2023/12/06 03:10:21;;;;;;;;;;;;;;;0.98;100.00;101005.25;4990077;28;20275;-75
2023/12/06 03:12:46;;;;;;;;;;;;;;;0.99;100.00;101002.56;4973709;28;19921;-75
2023/12/06 03:15:11;;;;;;;;;;;;;;;1.04;100.00;100997.09;4989155;28;19991;-75
2023/12/06 03:17:37;;;;;;;;;;;;;;;1.07;100.00;101002.28;4989630;28;20047;-75
2023/12/06 03:20:04;;;;;;;;;;;;;;;1.10;100.00;101002.19;4973140;28;20011;-75
2023/12/06 03:22:29;;;;;;;;;;;;;;;1.07;100.00;101001.41;4987005;28;19922;-75
2023/12/06 03:24:54;;;;;;;;;;;;;;;1.08;100.00;101006.66;4989710;28;19952;-75
2023/12/06 03:27:19;;;;;;;;;;;;;;;1.10;100.00;101010.13;4984688;28;19969;-75
2023/12/06 03:29:44;;;;;;;;;;;;;;;1.11;100.00;101011.84;4987067;28;19971;-75
2023/12/06 03:32:10;;;;;;;;;;;;;;;1.10;100.00;101019.81;4993549;28;20417;-76
2023/12/06 03:34:35;;;;;;;;;;;;;;;1.15;100.00;101015.22;4987826;28;20379;-75
2023/12/06 03:37:02;;;;;;;;;;;;;;;1.09;100.00;101023.38;4990425;28;19913;-75
2023/12/06 03:39:27;;;;;;;;;;;;;;;1.16;100.00;101023.13;4974867;28;19921;-76
2023/12/06 03:41:53;;;;;;;;;;;;;;;1.15;100.00;101021.41;4987773;28;20297;-75
2023/12/06 03:44:18;;;;;;;;;;;;;;;1.17;100.00;101021.31;4990115;28;19921;-76
2023/12/06 03:46:44;;;;;;;;;;;;;;;1.18;100.00;101023.06;4985614;28;20291;-76
2023/12/06 03:49:09;;;;;;;;;;;;;;;1.22;100.00;101032.63;4985452;28;20420;-76
2023/12/06 03:51:34;;;;;;;;;;;;;;;1.27;100.00;101032.44;4990837;28;20000;-76
2023/12/06 03:53:59;;;;;;;;;;;;;;;1.19;100.00;101038.00;4984545;28;19921;-74
2023/12/06 03:56:25;;;;;;;;;;;;;;;1.24;100.00;101038.72;4977244;28;19932;-75
2023/12/06 03:58:50;;;;;;;;;;;;;;;1.27;100.00;101038.63;4992004;28;19971;-75
2023/12/06 04:01:16;;;;;;;;;;;;;;;1.30;100.00;101046.44;4974745;28;20477;-75
2023/12/06 04:03:41;;;;;;;;;;;;;;;1.32;100.00;101046.38;4994111;28;20291;-75
2023/12/06 04:06:07;;;;;;;;;;;;;;;1.38;100.00;101043.50;4995876;28;19929;-76
2023/12/06 04:08:32;;;;;;;;;;;;;;;1.36;100.00;101045.34;4991624;28;20364;-75
2023/12/06 04:10:57;;;;;;;;;;;;;;;1.39;100.00;101049.66;5000760;28;19926;-75
2023/12/06 04:13:22;;;;;;;;;;;;;;;1.41;100.00;101051.34;4991113;28;20402;-75
2023/12/06 04:15:47;;;;;;;;;;;;;;;1.42;100.00;101049.53;4993151;28;20366;-75
2023/12/06 04:18:13;;;;;;;;;;;;;;;1.49;100.00;101059.00;4975312;28;20514;-75
2023/12/06 04:20:38;;;;;;;;;;;;;;;1.45;100.00;101058.25;4992329;28;20435;-75
2023/12/06 04:23:03;;;;;;;;;;;;;;;1.53;100.00;101063.25;4995492;28;19917;-76
2023/12/06 04:25:28;;;;;;;;;;;;;;;1.50;100.00;101064.22;5008403;28;19922;-76
2023/12/06 04:27:54;;;;;;;;;;;;;;;1.54;100.00;101058.81;4976749;28;19925;-75
2023/12/06 04:30:19;;;;;;;;;;;;;;;1.57;100.00;101061.34;4996839;28;20388;-75
2023/12/06 04:32:44;;;;;;;;;;;;;;;1.59;100.00;101068.31;4996484;28;20426;-75
2023/12/06 04:35:09;;;;;;;;;;;;;;;1.61;100.00;101062.97;4987514;28;19917;-75
2023/12/06 04:37:34;;;;;;;;;;;;;;;1.59;100.00;101073.59;4997488;28;21140;-75
2023/12/06 04:40:00;;;;;;;;;;;;;;;1.54;100.00;101075.59;4991032;28;19929;-75
2023/12/06 04:42:25;;;;;;;;;;;;;;;1.62;100.00;101070.84;4988765;28;19913;-75
2023/12/06 04:44:50;;;;;;;;;;;;;;;1.64;100.00;101066.38;4991310;28;20336;-75
2023/12/06 04:47:16;;;;;;;;;;;;;;;1.67;100.00;101068.06;4994593;28;20440;-76
2023/12/06 04:49:41;;;;;;;;;;;;;;;1.70;100.00;101072.34;4979745;28;20378;-76
2023/12/06 04:52:06;;;;;;;;;;;;;;;1.72;100.00;101078.47;4980634;28;19933;-75
2023/12/06 04:54:31;;;;;;;;;;;;;;;1.72;100.00;101073.16;4988585;28;20461;-75
2023/12/06 04:56:57;;;;;;;;;;;;;;;1.64;100.00;101074.31;4992356;28;20759;-75
2023/12/06 04:59:22;;;;;;;;;;;;;;;1.69;100.00;101078.56;4992132;28;20368;-76
2023/12/06 05:01:47;;;;;;;;;;;;;;;1.66;100.00;101087.50;4997241;28;19925;-75
2023/12/06 05:04:13;;;;;;;;;;;;;;;1.64;100.00;101090.19;4993005;28;19968;-75
2023/12/06 05:06:38;;;;;;;;;;;;;;;1.64;100.00;101092.84;5008072;28;20196;-75
2023/12/06 05:09:07;;;;;;;;;;;;;;;1.69;100.00;101095.34;5003240;28;20327;-75
2023/12/06 05:11:32;;;;;;;;;;;;;;;1.68;100.00;101085.66;4992448;28;20332;-75
2023/12/06 05:13:58;;;;;;;;;;;;;;;1.70;100.00;101094.41;5008268;28;20000;-75
2023/12/06 05:16:23;;;;;;;;;;;;;;;1.70;100.00;101094.41;4989461;28;19921;-75
2023/12/06 05:18:48;;;;;;;;;;;;;;;1.69;100.00;101097.97;4974410;28;19918;-76
2023/12/06 05:21:13;;;;;;;;;;;;;;;1.65;100.00;101097.22;4992637;28;19953;-75
2023/12/06 05:23:39;;;;;;;;;;;;;;;1.68;100.00;101093.59;4994513;28;20122;-76
2023/12/06 05:26:04;;;;;;;;;;;;;;;1.69;100.00;101094.47;4975765;28;19932;-76
2023/12/06 05:28:29;;;;;;;;;;;;;;;1.72;100.00;101095.19;4977980;28;19928;-75
2023/12/06 05:30:54;;;;;;;;;;;;;;;1.77;100.00;101103.00;4991873;28;19936;-75
2023/12/06 05:33:20;;;;;;;;;;;;;;;1.76;100.00;101098.63;4976270;28;20595;-75
2023/12/06 05:35:46;;;;;;;;;;;;;;;1.79;100.00;101096.72;4978108;28;20379;-76
2023/12/06 05:38:11;;;;;;;;;;;;;;;1.87;100.00;101098.22;4987741;28;20327;-75
2023/12/06 05:40:36;;;;;;;;;;;;;;;1.85;100.00;101095.63;5008046;28;19921;-75
2023/12/06 05:43:02;;;;;;;;;;;;;;;1.84;100.00;101099.22;4995174;28;20449;-75
2023/12/06 05:45:27;;;;;;;;;;;;;;;1.85;100.00;101095.63;4990068;28;20291;-75
2023/12/06 05:47:52;;;;;;;;;;;;;;;1.94;100.00;101105.00;4993130;28;19937;-75
2023/12/06 05:50:17;;;;;;;;;;;;;;;1.92;100.00;101101.56;4974961;28;19948;-75
2023/12/06 05:52:43;;;;;;;;;;;;;;;1.98;100.00;101100.47;4993511;28;19921;-75
2023/12/06 05:55:08;;;;;;;;;;;;;;;1.96;100.00;101100.53;4990642;28;19921;-75
2023/12/06 05:57:33;;;;;;;;;;;;;;;1.92;100.00;101098.91;4978458;28;19925;-75
2023/12/06 05:59:59;;;;;;;;;;;;;;;2.00;100.00;101102.13;4990710;28;20355;-75
2023/12/06 06:02:24;;;;;;;;;;;;;;;2.04;100.00;101103.72;4991215;28;19921;-75
2023/12/06 06:04:49;;;;;;;;;;;;;;;2.06;100.00;101104.53;4992724;28;20368;-75
2023/12/06 06:07:14;;;;;;;;;;;;;;;2.12;100.00;101110.53;4993390;28;20379;-75
2023/12/06 06:09:40;;;;;;;;;;;;;;;2.15;100.00;101107.75;4991179;28;20031;-75
2023/12/06 06:12:07;;;;;;;;;;;;;;;2.09;100.00;101109.72;4992032;28;20225;-76
2023/12/06 06:14:32;;;;;;;;;;;;;;;2.09;100.00;101101.78;4990564;28;19921;-75
2023/12/06 06:16:57;;;;;;;;;;;;;;;2.07;100.00;101110.72;4983695;28;20180;-75
2023/12/06 06:19:22;;;;;;;;;;;;;;;1.98;100.00;101097.81;4988869;28;19928;-75
2023/12/06 06:21:47;;;;;;;;;;;;;;;2.10;100.00;101121.19;4989408;28;19971;-75
2023/12/06 06:24:13;;;;;;;;;;;;;;;2.08;100.00;101125.69;4976605;28;19961;-75
2023/12/06 06:26:38;;;;;;;;;;;;;;;2.10;100.00;101131.78;4988234;28;20036;-75
2023/12/06 06:29:03;;;;;;;;;;;;;;;2.08;100.00;101131.84;4990742;28;19966;-75
2023/12/06 06:31:28;;;;;;;;;;;;;;;2.09;100.00;101130.06;4993654;28;19967;-75
2023/12/06 06:33:53;;;;;;;;;;;;;;;2.13;100.00;101123.69;4992785;28;19921;-75
2023/12/06 06:36:19;;;;;;;;;;;;;;;2.16;100.00;101120.94;4984708;28;19925;-74
2023/12/06 06:38:45;;;;;;;;;;;;;;;2.13;100.00;101129.00;4986579;28;19918;-75
2023/12/06 06:41:10;;;;;;;;;;;;;;;2.15;100.00;101136.91;4994440;28;20374;-75
2023/12/06 06:43:36;;;;;;;;;;;;;;;2.18;100.00;101137.63;4991134;28;20414;-75
2023/12/06 06:46:02;;;;;;;;;;;;;;;2.14;100.00;101153.72;4988048;28;20655;-74
2023/12/06 06:48:27;;;;;;;;;;;;;;;2.17;100.00;101148.31;4984776;28;19917;-75
2023/12/06 06:50:52;;;;;;;;;;;;;;;2.18;100.00;101150.88;5009726;28;20307;-75
2023/12/06 06:53:17;;;;;;;;;;;;;;;2.19;100.00;101146.47;4984016;28;20680;-75
2023/12/06 06:55:43;;;;;;;;;;;;;;;2.19;100.00;101151.78;4986262;28;20641;-75
2023/12/06 06:58:08;;;;;;;;;;;;;;;2.19;100.00;101149.13;4990250;28;19929;-75
2023/12/06 07:00:33;;;;;;;;;;;;;;;2.23;100.00;101158.69;4991925;28;19922;-74
2023/12/06 07:02:59;;;;;;;;;;;;;;;2.28;100.00;101164.66;4986694;28;19953;-75
2023/12/06 07:05:24;;;;;;;;;;;;;;;2.27;100.00;101170.88;4990290;28;20019;-74
2023/12/06 07:07:49;;;;;;;;;;;;;;;2.32;100.00;101170.72;5001456;28;19964;-75
2023/12/06 07:10:14;;;;;;;;;;;;;;;2.34;100.00;101180.31;4988480;28;20023;-75
2023/12/06 07:12:39;;;;;;;;;;;;;;;2.34;100.00;101180.31;4974489;28;19943;-75
2023/12/06 07:15:05;;;;;;;;;;;;;;;2.37;100.00;101182.84;4983952;28;19924;-74
2023/12/06 07:17:30;;;;;;;;;;;;;;;2.36;100.00;101191.72;4990337;28;19921;-75
2023/12/06 07:19:55;;;;;;;;;;;;;;;2.39;100.00;101188.97;4986270;28;20372;-75
2023/12/06 07:22:21;;;;;;;;;;;;;;;2.39;100.00;101183.66;4985202;28;19968;-74
2023/12/06 07:24:47;;;;;;;;;;;;;;;2.28;100.00;101179.69;4986646;28;20031;-75
2023/12/06 07:27:12;;;;;;;;;;;;;;;2.44;100.00;101198.53;4982880;28;20431;-75
2023/12/06 07:29:37;;;;;;;;;;;;;;;2.46;100.00;101208.16;4988145;28;20040;-75
2023/12/06 07:32:02;;;;;;;;;;;;;;;2.40;100.00;101200.41;4972990;28;19967;-75
2023/12/06 07:34:28;;;;;;;;;;;;;;;2.49;100.00;101212.47;4984212;28;19917;-75
2023/12/06 07:36:53;;;;;;;;;;;;;;;2.52;100.00;101210.56;4988737;28;19957;-71
2023/12/06 07:39:18;;;;;;;;;;;;;;;2.52;100.00;101210.56;4996187;28;19945;-75
2023/12/06 07:41:44;;;;;;;;;;;;;;;2.58;100.00;101219.22;4990001;28;19917;-75
2023/12/06 07:44:09;;;;;;;;;;;;;;;2.56;100.00;101216.59;5006503;28;19981;-75
2023/12/06 07:46:35;;;;;;;;;;;;;;;2.48;100.00;101219.56;4967647;28;20020;-75
2023/12/06 07:49:00;;;;;;;;;;;;;;;2.60;100.00;101234.13;4988000;28;19922;-75
2023/12/06 07:51:25;;;;;;;;;;;;;;;2.60;100.00;101238.59;4989527;28;19921;-75
2023/12/06 07:53:51;;;;;;;;;;;;;;;2.62;100.00;101250.00;4990885;28;19926;-75
2023/12/06 07:56:16;;;;;;;;;;;;;;;2.61;100.00;101249.13;4989509;28;19999;-75
2023/12/06 07:58:42;;;;;;;;;;;;;;;2.59;100.00;101250.97;4974458;28;20059;-75
2023/12/06 08:01:07;;;;;;;;;;;;;;;2.60;100.00;101255.34;4990579;28;19921;-75
2023/12/06 08:03:32;;;;;;;;;;;;;;;2.66;100.00;101259.53;4972590;28;20743;-75
2023/12/06 08:05:59;;;;;;;;;;;;;;;2.60;100.00;101260.63;4995137;28;20384;-75
2023/12/06 08:08:25;;;;;;;;;;;;;;;2.64;100.00;101264.06;4992240;28;19924;-75
2023/12/06 08:10:50;;;;;;;;;;;;;;;2.60;100.00;101271.25;4992200;28;20009;-75
2023/12/06 08:13:15;;;;;;;;;;;;;;;2.64;100.00;101275.50;4992049;28;19926;-74
2023/12/06 08:15:40;;;;;;;;;;;;;;;2.63;100.00;101276.44;5000873;28;19918;-75
2023/12/06 08:18:06;;;;;;;;;;;;;;;2.68;100.00;101278.91;4989088;28;19984;-75
2023/12/06 08:20:32;;;;;;;;;;;;;;;2.66;100.00;101284.28;4983369;28;19921;-75
2023/12/06 08:22:57;;;;;;;;;;;;;;;2.69;100.00;101291.25;5000137;28;19921;-75
2023/12/06 08:25:22;;;;;;;;;;;;;;;2.70;100.00;101292.97;4983056;28;20380;-75
2023/12/06 08:27:48;;;;;;;;;;;;;;;2.70;100.00;101292.97;4984431;28;19956;-75
2023/12/06 08:30:13;;;;;;;;;;;;;;;2.73;100.00;101308.78;4966217;28;19988;-75
2023/12/06 08:32:38;;;;;;;;;;;;;;;2.76;100.00;101308.66;4987057;28;20020;-75
2023/12/06 08:35:03;;;;;;;;;;;;;;;2.76;100.00;101310.47;4984688;28;20012;-75
2023/12/06 08:37:29;;;;;;;;;;;;;;;2.81;100.00;101306.69;4987233;28;19953;-75
2023/12/06 08:39:54;;;;;;;;;;;;;;;2.86;100.00;101303.88;4982925;28;19922;-75
2023/12/06 08:42:19;;;;;;;;;;;;;;;2.90;100.00;101308.13;4988959;28;19926;-75
2023/12/06 08:44:44;;;;;;;;;;;;;;;2.91;100.00;101316.97;4987675;28;19922;-75
2023/12/06 08:47:10;;;;;;;;;;;;;;;2.96;100.00;101317.63;5012277;28;20716;-75
2023/12/06 08:49:36;;;;;;;;;;;;;;;2.98;100.00;101319.34;4978565;28;20351;-75
2023/12/06 08:52:02;;;;;;;;;;;;;;;3.02;100.00;101324.53;4976858;28;19925;-75
2023/12/06 08:54:27;;;;;;;;;;;;;;;3.06;100.00;101326.97;4994109;28;20607;-74
2023/12/06 08:56:52;;;;;;;;;;;;;;;3.09;100.00;101323.34;4979257;28;20323;-75
2023/12/06 08:59:17;;;;;;;;;;;;;;;3.05;100.00;101333.22;4970504;28;19928;-75
2023/12/06 09:01:43;;;;;;;;;;;;;;;3.12;100.00;101329.41;4992033;28;19956;-75
2023/12/06 09:04:09;;;;;;;;;;;;;;;3.16;100.00;101322.19;4997715;28;20011;-75
2023/12/06 09:06:34;;;;;;;;;;;;;;;3.23;100.00;101330.75;4974548;28;19921;-75
2023/12/06 09:09:02;;;;;;;;;;;;;;;3.30;100.00;101327.84;4982238;28;19909;-75
2023/12/06 09:11:27;;;;;;;;;;;;;;;3.35;100.00;101340.91;4991022;28;20376;-75
2023/12/06 09:13:53;;;;;;;;;;;;;;;3.42;100.00;101345.06;4973812;28;19928;-75
2023/12/06 09:16:18;;;;;;;;;;;;;;;3.44;100.00;101367.06;4989479;28;20094;-75
2023/12/06 09:18:43;;;;;;;;;;;;;;;3.53;100.00;101360.56;4987654;28;20004;-75
2023/12/06 09:21:09;;;;;;;;;;;;;;;3.54;100.00;101364.06;4987300;28;19932;-75
2023/12/06 09:23:34;;;;;;;;;;;;;;;3.61;100.00;101368.22;4991436;28;19949;-75
2023/12/06 09:26:00;;;;;;;;;;;;;;;3.68;100.00;101379.44;4989061;28;19918;-75
2023/12/06 09:28:25;;;;;;;;;;;;;;;3.69;100.00;101375.88;4985805;28;19922;-75
2023/12/06 09:30:51;;;;;;;;;;;;;;;3.65;100.00;101377.78;4989003;28;19973;-75
2023/12/06 09:33:16;;;;;;;;;;;;;;;3.67;100.00;101383.91;5005290;28;19971;-75
2023/12/06 09:35:41;;;;;;;;;;;;;;;3.78;100.00;101390.56;5008669;28;19921;-75
2023/12/06 09:38:06;;;;;;;;;;;;;;;3.83;100.00;101393.91;4990759;28;19973;-74
2023/12/06 09:40:32;;;;;;;;;;;;;;;3.82;100.00;101395.72;4988690;28;20017;-74
2023/12/06 09:42:58;;;;;;;;;;;;;;;3.66;100.00;101407.84;4989482;28;19944;-74
2023/12/06 09:45:24;;;;;;;;;;;;;;;3.59;100.00;101417.84;4991010;28;19921;-74
2023/12/06 09:47:49;;;;;;;;;;;;;;;3.53;100.00;101426.06;5012360;28;20349;-75
2023/12/06 09:50:15;;;;;;;;;;;;;;;3.73;100.00;101420.81;4984405;28;19932;-75
2023/12/06 09:52:40;;;;;;;;;;;;;;;4.70;100.00;101411.53;5007603;28;19928;-75
2023/12/06 09:55:05;;;;;;;;;;;;;;;5.65;100.00;101416.09;4985643;28;20291;-75
2023/12/06 09:57:31;;;;;;;;;;;;;;;6.50;100.00;101427.06;4972092;28;20388;-75
2023/12/06 09:59:56;;;;;;;;;;;;;;;7.20;100.00;101449.19;4988031;28;20317;-74
2023/12/06 10:02:22;;;;;;;;;;;;;;;7.46;100.00;101446.03;5009475;28;19948;-75
2023/12/06 10:04:47;;;;;;;;;;;;;;;8.06;100.00;101447.16;4988752;28;19922;-75
2023/12/06 10:07:12;;;;;;;;;;;;;;;8.21;100.00;101450.75;5005917;28;19921;-75
2023/12/06 10:09:38;;;;;;;;;;;;;;;8.06;100.00;101455.19;4988603;28;19926;-76
2023/12/06 10:12:09;;;;;;;;;;;;;;;8.24;100.00;101456.78;4996404;28;19928;-75
2023/12/06 10:14:35;;;;;;;;;;;;;;;8.97;100.00;101455.19;4987718;28;20640;-75
2023/12/06 10:17:00;;;;;;;;;;;;;;;9.32;100.00;101456.63;4993121;28;19921;-76
2023/12/06 10:19:25;;;;;;;;;;;;;;;9.99;100.00;101460.44;4986277;28;20684;-75
2023/12/06 10:21:51;;;;;;;;;;;;;;;10.30;100.00;101448.56;4985836;28;20379;-75
2023/12/06 10:24:16;;;;;;;;;;;;;;;10.78;100.00;101441.81;5004054;28;20440;-76
2023/12/06 10:26:41;;;;;;;;;;;;;;;10.91;100.00;101444.50;4990713;28;19921;-75
2023/12/06 10:29:06;;;;;;;;;;;;;;;10.63;100.00;101449.09;4991364;28;19929;-75
2023/12/06 10:31:38;;;;;;;;;;;;;;;10.47;100.00;101446.59;4993014;28;19922;-75
2023/12/06 10:34:03;;;;;;;;;;;;;;;10.79;100.00;101455.13;5009712;28;20331;-76
2023/12/06 10:36:28;;;;;;;;;;;;;;;10.95;100.00;101452.22;4989544;28;19964;-75
2023/12/06 10:38:57;;;;;;;;;;;;;;;11.50;100.00;101459.19;4975885;28;19922;-75
2023/12/06 10:41:23;;;;;;;;;;;;;;;11.64;100.00;101450.13;5007550;28;19984;-75
2023/12/06 10:43:49;;;;;;;;;;;;;;;11.51;100.00;101444.78;4990451;28;19925;-75
2023/12/06 10:46:14;;;;;;;;;;;;;;;11.11;100.00;101448.50;4974515;28;19921;-75
2023/12/06 10:48:39;;;;;;;;;;;;;;;11.27;100.00;101444.69;4995939;28;19917;-73
2023/12/06 10:51:05;;;;;;;;;;;;;;;11.05;100.00;101447.06;4990522;28;20419;-74
2023/12/06 10:53:30;;;;;;;;;;;;;;;11.05;100.00;101448.91;4992446;28;19932;-73
2023/12/06 10:55:56;;;;;;;;;;;;;;;10.61;100.00;101441.13;4994847;28;19948;-73
2023/12/06 10:58:21;;;;;;;;;;;;;;;9.70;100.00;101445.31;4990696;28;20389;-73
2023/12/06 11:00:46;;;;;;;;;;;;;;;8.53;100.00;101456.06;4976420;28;20017;-73
2023/12/06 11:03:12;;;;;;;;;;;;;;;8.01;100.00;101459.94;4986727;28;19979;-72
2023/12/06 11:05:39;;;;;;;;;;;;;;;8.47;100.00;101465.31;4976647;28;19967;-73
2023/12/06 11:08:17;;;;;;;;;;;;;;;9.21;100.00;101460.00;4988321;28;19921;-73
2023/12/06 11:11:03;;;;;;;;;;;;;;;8.91;100.00;101454.72;4988166;28;19929;-73
2023/12/06 11:13:35;;;;;;;;;;;;;;;8.62;100.00;101457.34;4990183;28;20336;-72
2023/12/06 11:16:00;;;;;;;;;;;;;;;8.45;100.00;101432.41;4986700;28;19928;-73
2023/12/06 11:18:26;;;;;;;;;;;;;;;8.60;100.00;101453.88;4989472;28;19921;-75
2023/12/06 11:20:52;;;;;;;;;;;;;;;9.06;100.00;101452.91;4996447;28;20684;-75
2023/12/06 11:23:18;;;;;;;;;;;;;;;9.67;100.00;101453.53;4977099;28;19925;-74
2023/12/06 11:25:44;;;;;;;;;;;;;;;9.33;100.00;101449.47;4989945;28;19922;-75
2023/12/06 11:28:14;;;;;;;;;;;;;;;9.30;100.00;101454.06;4991072;28;20350;-75
2023/12/06 11:30:55;;;;;;;;;;;;;;;8.91;100.00;101444.84;4990253;28;20573;-75
2023/12/06 11:33:20;;;;;;;;;;;;;;;8.56;100.00;101447.88;4996763;28;19939;-75
2023/12/06 11:35:49;;;;;;;;;;;;;;;8.36;100.00;101444.50;4988950;28;20647;-75
2023/12/06 11:38:15;;;;;;;;;;;;;;;7.94;100.00;101427.34;4993077;28;19921;-75
2023/12/06 11:40:47;;;;;;;;;;;;;;;8.55;100.00;101456.84;4987045;28;19936;-75
2023/12/06 11:43:13;;;;;;;;;;;;;;;10.02;100.00;101441.47;4982454;28;20019;-75
2023/12/06 11:45:39;;;;;;;;;;;;;;;11.64;100.00;101439.38;4989291;28;19932;-75
2023/12/06 11:48:07;;;;;;;;;;;;;;;12.90;100.00;101447.88;4984592;28;20387;-75
2023/12/06 11:50:45;;;;;;;;;;;;;;;13.71;96.54;101451.47;4990837;28;19924;-74
2023/12/06 11:53:11;;;;;;;;;;;;;;;14.36;92.25;101449.69;4987585;28;19976;-73
2023/12/06 11:55:37;;;;;;;;;;;;;;;14.23;83.07;101443.59;4975900;28;19926;-74
2023/12/06 11:58:06;;;;;;;;;;;;;;;14.70;86.00;101448.69;4991208;28;19976;-75
2023/12/06 12:00:31;;;;;;;;;;;;;;;14.31;81.76;101442.94;5006991;28;19925;-75
2023/12/06 12:03:00;;;;;;;;;;;;;;;13.62;82.56;101455.78;4989482;28;19967;-75
2023/12/06 12:05:25;;;;;;;;;;;;;;;13.96;82.46;101442.22;4992834;28;19921;-74
2023/12/06 12:07:50;;;;;;;;;;;;;;;12.94;81.61;101440.44;4988852;28;20294;-74
2023/12/06 12:10:16;;;;;;;;;;;;;;;11.47;91.47;101452.19;4973018;28;20390;-76
2023/12/06 12:12:41;;;;;;;;;;;;;;;11.01;97.99;101455.47;4988299;28;20033;-75
2023/12/06 12:15:07;;;;;;;;;;;;;;;10.13;100.00;101455.06;4989023;28;19921;-74
2023/12/06 12:17:32;;;;;;;;;;;;;;;9.28;100.00;101460.47;4992782;28;19925;-74
2023/12/06 12:19:57;;;;;;;;;;;;;;;8.83;100.00;101464.06;4974516;28;19971;-74
2023/12/06 12:22:22;;;;;;;;;;;;;;;8.57;100.00;101462.09;4989143;28;19926;-74
2023/12/06 12:24:47;;;;;;;;;;;;;;;8.02;100.00;101461.66;4988727;28;20052;-74
2023/12/06 12:27:18;;;;;;;;;;;;;;;7.82;100.00;101463.66;4987203;28;20272;-74